Time;durP1;ratioP1;P1;durP2;ratioP2;P2;SDS_P1;SDS_P2;PMS_P1;PMS_P2;Temp;Humidity;BMP_temperature;BMP_pressure;BME280_temperature;BME280_humidity;BME280_pressure;Samples;Min_cycle;Max_cycle;Signal;HPM_P1;HPM_P2
2023/01/07 00:01:27;;;;;;;80.15;7.85;;;;;;;11.79;100.00;98438.94;4954583;28;20035;-53
2023/01/07 00:03:53;;;;;;;95.50;8.80;;;;;;;11.72;100.00;98440.66;4956133;28;20571;-54
2023/01/07 00:06:24;;;;;;;99.45;9.07;;;;;;;11.56;100.00;98438.09;4956458;28;20045;-55
2023/01/07 00:08:51;;;;;;;93.03;8.57;;;;;;;11.32;100.00;98439.81;4956681;28;20129;-58
2023/01/07 00:11:19;;;;;;;108.90;9.32;;;;;;;11.39;100.00;98437.22;4955363;28;20080;-56
2023/01/07 00:13:47;;;;;;;92.93;8.50;;;;;;;11.68;100.00;98433.72;4955053;28;20155;-55
2023/01/07 00:16:14;;;;;;;82.93;7.88;;;;;;;11.99;100.00;98436.28;4956986;28;20033;-55
2023/01/07 00:18:41;;;;;;;74.88;7.13;;;;;;;11.79;100.00;98436.31;4957655;28;20030;-57
2023/01/07 00:21:13;;;;;;;85.20;8.02;;;;;;;11.84;100.00;98430.25;4955850;28;20034;-56
2023/01/07 00:23:40;;;;;;;57.55;5.55;;;;;;;12.15;100.00;98436.31;4957302;28;20331;-54
2023/01/07 00:26:11;;;;;;;56.03;7.75;;;;;;;12.10;100.00;98439.78;4956393;28;20105;-58
2023/01/07 00:28:39;;;;;;;67.32;6.78;;;;;;;11.87;100.00;98431.13;4954693;28;20046;-54
2023/01/07 00:31:07;;;;;;;68.03;7.32;;;;;;;11.87;100.00;98425.91;4944484;28;20570;-54
2023/01/07 00:33:42;;;;;;;59.83;6.20;;;;;;;12.16;100.00;98419.78;4957204;28;20023;-54
2023/01/07 00:36:09;;;;;;;78.63;7.65;;;;;;;11.93;100.00;98416.34;4956717;28;20037;-55
2023/01/07 00:38:37;;;;;;;95.72;8.77;;;;;;;11.51;100.00;98416.34;4956680;28;20477;-55
2023/01/07 00:41:04;;;;;;;97.03;8.70;;;;;;;11.42;100.00;98418.97;4955748;28;20046;-54
2023/01/07 00:43:29;;;;;;;75.82;7.35;;;;;;;11.27;100.00;98420.72;4955561;28;20617;-54
2023/01/07 00:45:55;;;;;;;72.40;6.85;;;;;;;11.11;100.00;98418.97;4956963;28;20153;-54
2023/01/07 00:48:22;;;;;;;76.82;6.97;;;;;;;11.15;100.00;98415.50;4957000;28;20034;-54
2023/01/07 00:50:48;;;;;;;104.30;9.02;;;;;;;11.20;100.00;98418.97;4954371;28;20092;-55
2023/01/07 00:53:13;;;;;;;71.65;6.90;;;;;;;10.95;100.00;98421.53;4956873;28;20107;-55
2023/01/07 00:55:39;;;;;;;99.47;8.52;;;;;;;11.33;100.00;98419.84;4956493;28;20039;-54
2023/01/07 00:58:05;;;;;;;77.50;7.13;;;;;;;11.48;100.00;98420.72;4955662;28;20019;-55
2023/01/07 01:00:30;;;;;;;64.15;6.13;;;;;;;11.58;100.00;98407.69;4955596;28;20352;-56
2023/01/07 01:02:55;;;;;;;82.57;7.30;;;;;;;11.15;100.00;98402.47;4956322;28;20043;-54
2023/01/07 01:05:21;;;;;;;60.08;6.43;;;;;;;11.05;100.00;98402.47;4956189;28;20041;-55
2023/01/07 01:07:47;;;;;;;81.13;7.22;;;;;;;11.28;100.00;98405.97;4956438;28;20089;-54
2023/01/07 01:10:16;;;;;;;57.20;5.60;;;;;;;11.15;100.00;98402.47;4955789;28;20090;-54
2023/01/07 01:12:41;;;;;;;64.15;6.05;;;;;;;11.17;100.00;98405.97;4954465;28;20125;-56
2023/01/07 01:15:13;;;;;;;56.13;6.00;;;;;;;11.42;100.00;98411.16;4955715;28;20101;-56
2023/01/07 01:17:39;;;;;;;81.57;7.38;;;;;;;11.46;100.00;98411.16;4956370;28;20065;-53
2023/01/07 01:20:06;;;;;;;91.07;8.55;;;;;;;11.46;100.00;98407.69;4955814;28;20110;-57
2023/01/07 01:22:31;;;;;;;61.13;6.22;;;;;;;11.27;100.00;98410.28;4956113;28;20099;-53
2023/01/07 01:24:57;;;;;;;74.00;6.80;;;;;;;11.30;100.00;98414.63;4956296;28;20420;-54
2023/01/07 01:27:22;;;;;;;71.00;6.70;;;;;;;11.35;100.00;98412.91;4954354;28;20350;-53
2023/01/07 01:29:47;;;;;;;102.35;8.63;;;;;;;11.42;100.00;98409.44;4954013;28;20089;-54
2023/01/07 01:32:13;;;;;;;76.35;7.07;;;;;;;11.40;100.00;98413.75;4955320;28;20051;-53
2023/01/07 01:34:38;;;;;;;47.83;5.10;;;;;;;11.27;100.00;98409.41;4956511;28;20258;-54
2023/01/07 01:37:04;;;;;;;57.58;5.75;;;;;;;11.35;100.00;98417.25;4956263;28;20070;-54
2023/01/07 01:39:29;;;;;;;49.25;5.10;;;;;;;11.76;100.00;98418.97;4955975;28;20389;-56
2023/01/07 01:41:55;;;;;;;69.95;6.32;;;;;;;11.92;100.00;98414.56;4953710;28;20031;-58
2023/01/07 01:44:44;;;;;;;68.65;6.63;;;;;;;11.87;100.00;98411.13;4954522;28;20038;-56
2023/01/07 01:47:31;;;;;;;68.50;6.68;;;;;;;11.89;100.00;98408.50;4955693;28;20074;-55
2023/01/07 01:50:08;;;;;;;79.18;7.25;;;;;;;11.96;100.00;98415.47;4955606;28;20038;-54
2023/01/07 01:53:14;;;;;;;77.30;6.93;;;;;;;12.07;100.00;98403.28;4954904;28;20046;-57
2023/01/07 01:55:45;;;;;;;64.47;6.35;;;;;;;11.80;100.00;98404.19;4894277;29;20044;-55
2023/01/07 01:58:19;;;;;;;72.45;6.80;;;;;;;11.60;100.00;98392.06;4893204;29;20414;-55
2023/01/07 02:00:48;;;;;;;76.68;7.20;;;;;;;11.15;100.00;98397.25;4934874;28;20110;-54
2023/01/07 02:03:18;;;;;;;78.78;6.88;;;;;;;11.65;100.00;98386.84;4955691;28;20042;-56
2023/01/07 02:05:45;;;;;;;87.35;7.63;;;;;;;11.67;100.00;98383.38;4955235;28;20275;-55
2023/01/07 02:08:11;;;;;;;72.72;6.72;;;;;;;11.48;100.00;98382.53;4955959;28;20711;-55
2023/01/07 02:10:37;;;;;;;88.57;7.82;;;;;;;11.83;100.00;98379.00;4954515;28;20038;-54
2023/01/07 02:13:09;;;;;;;61.90;6.43;;;;;;;12.02;100.00;98378.94;4954148;28;20178;-53
2023/01/07 02:16:15;;;;;;;64.22;6.65;;;;;;;11.91;100.00;98381.56;4954661;28;20043;-55
2023/01/07 02:18:49;;;;;;;81.70;7.55;;;;;;;11.30;100.00;98383.38;4955750;28;20027;-56
2023/01/07 02:21:53;;;;;;;88.13;8.02;;;;;;;11.42;100.00;98377.28;4954938;28;20051;-53
2023/01/07 02:24:30;;;;;;;71.60;6.72;;;;;;;11.91;100.00;98376.34;4955661;28;20134;-53
2023/01/07 02:27:14;;;;;;;70.78;6.88;;;;;;;12.11;100.00;98375.47;4953068;28;20620;-53
2023/01/07 02:30:11;;;;;;;88.15;8.02;;;;;;;12.20;100.00;98371.94;4954014;28;20085;-55
2023/01/07 02:32:54;;;;;;;78.00;7.00;;;;;;;12.29;100.00;98369.31;4955173;28;20031;-53
2023/01/07 02:35:38;;;;;;;68.88;7.07;;;;;;;12.14;100.00;98372.00;4955280;28;20089;-56
2023/01/07 02:38:19;;;;;;;72.13;6.88;;;;;;;12.19;100.00;98365.88;4955376;28;20061;-53
2023/01/07 02:41:09;;;;;;;100.47;8.90;;;;;;;11.74;100.00;98357.28;4954284;28;20031;-53
2023/01/07 02:43:46;;;;;;;53.08;5.85;;;;;;;11.70;100.00;98362.50;4954474;28;20124;-53
2023/01/07 02:46:20;;;;;;;93.53;8.20;;;;;;;11.75;100.00;98359.91;4954752;28;20058;-53
2023/01/07 02:48:46;;;;;;;68.75;6.65;;;;;;;11.74;100.00;98355.56;4955309;28;20035;-52
2023/01/07 02:51:12;;;;;;;90.45;8.52;;;;;;;11.56;100.00;98354.72;4954361;28;20409;-53
2023/01/07 02:53:40;;;;;;;70.80;7.28;;;;;;;11.71;100.00;98352.97;4959193;28;20042;-52
2023/01/07 02:56:14;;;;;;;74.75;7.43;;;;;;;11.76;100.00;98351.19;4957965;28;20043;-53
2023/01/07 02:58:56;;;;;;;62.55;6.68;;;;;;;11.41;100.00;98357.34;4957512;28;20040;-53
2023/01/07 03:01:46;;;;;;;74.53;7.63;;;;;;;11.55;100.00;98345.16;4957019;28;20039;-52
2023/01/07 03:04:37;;;;;;;85.20;8.55;;;;;;;11.56;100.00;98340.81;4959417;28;20269;-53
2023/01/07 03:07:34;;;;;;;56.83;6.28;;;;;;;11.95;100.00;98338.97;4958393;28;20150;-54
2023/01/07 03:10:20;;;;;;;62.35;6.45;;;;;;;11.84;100.00;98339.03;4935054;28;20047;-53
2023/01/07 03:12:53;;;;;;;52.67;6.03;;;;;;;11.88;100.00;98336.41;4956680;28;20495;-52
2023/01/07 03:15:30;;;;;;;66.25;6.80;;;;;;;12.03;100.00;98333.75;4957729;28;20035;-53
2023/01/07 03:18:12;;;;;;;74.90;7.22;;;;;;;12.04;100.00;98332.88;4959419;28;20011;-52
2023/01/07 03:20:40;;;;;;;57.55;6.65;;;;;;;11.94;100.00;98333.78;4957290;28;20035;-54
2023/01/07 03:23:09;;;;;;;60.15;6.05;;;;;;;11.79;100.00;98325.13;4958485;28;20034;-54
2023/01/07 03:25:42;;;;;;;70.57;7.38;;;;;;;11.32;100.00;98329.56;4957706;28;20038;-52
2023/01/07 03:28:10;;;;;;;77.57;7.55;;;;;;;11.10;100.00;98326.97;4956935;28;20022;-53
2023/01/07 03:30:37;;;;;;;91.97;8.48;;;;;;;11.71;100.00;98324.28;4956678;28;20050;-52
2023/01/07 03:33:26;;;;;;;77.47;7.53;;;;;;;11.29;100.00;98324.38;4957944;28;20025;-54
2023/01/07 03:35:55;;;;;;;47.95;5.65;;;;;;;11.09;100.00;98314.81;4957867;28;20688;-53
2023/01/07 03:38:22;;;;;;;66.82;6.80;;;;;;;11.44;100.00;98313.06;4958461;28;20074;-56
2023/01/07 03:40:48;;;;;;;88.82;8.32;;;;;;;11.61;100.00;98309.56;4956449;28;20786;-55
2023/01/07 03:43:16;;;;;;;66.32;6.90;;;;;;;11.71;100.00;98306.06;4956635;28;20058;-53
2023/01/07 03:45:42;;;;;;;72.15;7.20;;;;;;;11.53;100.00;98306.97;4956988;28;20054;-53
2023/01/07 03:48:08;;;;;;;59.65;6.70;;;;;;;11.68;100.00;98306.06;4958133;28;20027;-53
2023/01/07 03:50:33;;;;;;;62.22;6.45;;;;;;;11.81;100.00;98304.28;4957445;28;20045;-52
2023/01/07 03:52:58;;;;;;;74.60;7.28;;;;;;;11.57;100.00;98293.94;4957157;28;20037;-53
2023/01/07 03:55:24;;;;;;;67.78;6.78;;;;;;;11.81;100.00;98291.25;4957727;28;20841;-53
2023/01/07 03:57:49;;;;;;;81.22;8.02;;;;;;;11.59;100.00;98294.78;4954817;28;20341;-54
2023/01/07 04:00:15;;;;;;;59.00;6.15;;;;;;;11.59;100.00;98286.13;4956707;28;20127;-53
2023/01/07 04:02:41;;;;;;;57.35;6.32;;;;;;;11.68;100.00;98283.47;4959377;28;20070;-53
2023/01/07 04:05:08;;;;;;;65.30;6.70;;;;;;;11.36;100.00;98279.19;4956801;28;20041;-53
2023/01/07 04:07:33;;;;;;;51.35;5.57;;;;;;;11.42;100.00;98280.94;4958337;28;20505;-55
2023/01/07 04:09:59;;;;;;;64.47;6.85;;;;;;;11.32;100.00;98269.66;4959519;28;20037;-53
2023/01/07 04:12:24;;;;;;;48.67;5.78;;;;;;;11.72;100.00;98273.91;4958503;28;20130;-53
2023/01/07 04:14:50;;;;;;;57.50;5.97;;;;;;;11.17;100.00;98273.19;4960913;28;20052;-53
2023/01/07 04:17:16;;;;;;;63.03;6.38;;;;;;;11.54;100.00;98273.09;4959114;28;20122;-54
2023/01/07 04:19:41;;;;;;;70.68;6.93;;;;;;;11.76;100.00;98277.38;4959822;28;20038;-53
2023/01/07 04:22:09;;;;;;;61.38;6.10;;;;;;;11.79;100.00;98264.31;4959098;28;20039;-54
2023/01/07 04:24:34;;;;;;;50.95;5.70;;;;;;;11.68;100.00;98267.84;4960507;28;20026;-53
2023/01/07 04:26:59;;;;;;;52.85;5.85;;;;;;;10.98;100.00;98264.53;4960200;28;20106;-52
2023/01/07 04:29:25;;;;;;;65.20;6.75;;;;;;;11.19;100.00;98255.81;4961015;28;20095;-53
2023/01/07 04:31:50;;;;;;;47.97;5.68;;;;;;;11.37;100.00;98254.91;4958660;28;20069;-53
2023/01/07 04:34:16;;;;;;;56.75;5.43;;;;;;;11.59;100.00;98255.72;4960099;28;20058;-54
2023/01/07 04:36:41;;;;;;;48.72;5.53;;;;;;;11.52;100.00;98251.41;4959620;28;20126;-54
2023/01/07 04:39:06;;;;;;;51.55;5.72;;;;;;;11.42;100.00;98254.88;4960617;28;20026;-53
2023/01/07 04:41:32;;;;;;;68.07;6.82;;;;;;;11.26;100.00;98251.47;4958387;28;20039;-53
2023/01/07 04:43:57;;;;;;;37.45;4.90;;;;;;;10.91;100.00;98250.66;4960912;28;20030;-53
2023/01/07 04:46:24;;;;;;;51.15;5.78;;;;;;;11.26;100.00;98247.13;4959573;28;20042;-55
2023/01/07 04:48:49;;;;;;;53.85;5.70;;;;;;;11.58;100.00;98248.78;4960058;28;20492;-53
2023/01/07 04:51:14;;;;;;;46.65;5.40;;;;;;;10.91;100.00;98246.28;4958150;28;20047;-53
2023/01/07 04:53:40;;;;;;;69.85;7.07;;;;;;;10.79;100.00;98241.97;4959634;28;20049;-56
2023/01/07 04:56:05;;;;;;;44.13;5.47;;;;;;;10.80;100.00;98243.69;4959226;28;20053;-56
2023/01/07 04:58:31;;;;;;;57.65;6.03;;;;;;;10.82;100.00;98246.31;4958164;28;20031;-53
2023/01/07 05:01:02;;;;;;;52.05;5.88;;;;;;;10.57;100.00;98241.09;4958106;28;20041;-56
2023/01/07 05:03:28;;;;;;;57.55;6.10;;;;;;;10.66;100.00;98224.63;4959565;28;20907;-53
2023/01/07 05:05:53;;;;;;;51.83;6.00;;;;;;;10.83;100.00;98235.03;4958969;28;20050;-53
2023/01/07 05:08:19;;;;;;;53.97;5.80;;;;;;;11.26;100.00;98230.63;4959763;28;20152;-53
2023/01/07 05:10:44;;;;;;;65.25;6.65;;;;;;;11.15;100.00;98225.44;4958319;28;20035;-53
2023/01/07 05:13:17;;;;;;;57.47;6.28;;;;;;;10.85;100.00;98220.28;4959413;28;20055;-53
2023/01/07 05:15:42;;;;;;;51.20;6.18;;;;;;;10.53;100.00;98214.22;4957999;28;20042;-55
2023/01/07 05:18:08;;;;;;;55.03;6.30;;;;;;;10.86;100.00;98214.22;4959294;28;20023;-53
2023/01/07 05:20:34;;;;;;;47.60;5.57;;;;;;;10.98;100.00;98209.88;4958789;28;20038;-53
2023/01/07 05:22:59;;;;;;;66.53;6.55;;;;;;;10.78;100.00;98209.03;4958704;28;20027;-52
2023/01/07 05:25:24;;;;;;;51.92;6.30;;;;;;;10.76;100.00;98209.91;4958982;28;20058;-54
2023/01/07 05:27:50;;;;;;;55.63;6.50;;;;;;;10.72;100.00;98210.75;4958772;28;20026;-55
2023/01/07 05:30:15;;;;;;;53.85;6.30;;;;;;;10.81;100.00;98210.75;4958635;28;20041;-56
2023/01/07 05:32:41;;;;;;;59.90;6.93;;;;;;;10.68;100.00;98209.88;4958921;28;20214;-53
2023/01/07 05:35:06;;;;;;;60.67;6.60;;;;;;;10.85;100.00;98203.78;4958699;28;20019;-53
2023/01/07 05:37:32;;;;;;;48.45;5.60;;;;;;;11.12;100.00;98208.09;4959388;28;20565;-53
2023/01/07 05:39:58;;;;;;;55.97;6.18;;;;;;;11.46;100.00;98199.31;4957980;28;20033;-54
2023/01/07 05:42:23;;;;;;;49.88;5.35;;;;;;;11.55;100.00;98201.03;4958279;28;20472;-54
2023/01/07 05:44:48;;;;;;;50.10;5.90;;;;;;;11.61;100.00;98201.00;4959156;28;20091;-53
2023/01/07 05:47:14;;;;;;;68.00;6.60;;;;;;;11.35;100.00;98201.13;4958131;28;20070;-53
2023/01/07 05:49:39;;;;;;;73.88;7.35;;;;;;;10.87;100.00;98205.53;4958627;28;20114;-53
2023/01/07 05:52:04;;;;;;;42.08;5.57;;;;;;;10.98;100.00;98200.31;4958010;28;20050;-54
2023/01/07 05:54:30;;;;;;;53.72;6.07;;;;;;;10.81;100.00;98196.00;4957301;28;20429;-53
2023/01/07 05:56:55;;;;;;;55.55;6.43;;;;;;;10.83;100.00;98196.00;4958731;28;20047;-53
2023/01/07 05:59:20;;;;;;;70.78;7.45;;;;;;;10.38;100.00;98195.97;4958821;28;20110;-53
2023/01/07 06:01:45;;;;;;;49.60;6.15;;;;;;;10.41;100.00;98193.38;4957709;28;20146;-53
2023/01/07 06:04:11;;;;;;;58.90;6.68;;;;;;;10.57;100.00;98190.81;4955588;28;20098;-54
2023/01/07 06:06:36;;;;;;;48.03;6.03;;;;;;;10.69;100.00;98190.78;4956875;28;20226;-54
2023/01/07 06:09:02;;;;;;;45.53;6.20;;;;;;;10.40;100.00;98192.50;4958067;28;20034;-54
2023/01/07 06:11:27;;;;;;;73.25;7.45;;;;;;;10.62;100.00;98191.69;4957145;28;20038;-56
2023/01/07 06:13:53;;;;;;;51.60;6.40;;;;;;;10.68;100.00;98192.53;4958800;28;20122;-53
2023/01/07 06:16:18;;;;;;;52.30;6.03;;;;;;;10.74;100.00;98183.00;4958412;28;20058;-54
2023/01/07 06:18:43;;;;;;;51.90;6.20;;;;;;;10.40;100.00;98183.84;4958349;28;20109;-53
2023/01/07 06:21:09;;;;;;;77.53;7.72;;;;;;;10.41;100.00;98186.44;4957284;28;20111;-55
2023/01/07 06:23:35;;;;;;;59.63;6.93;;;;;;;10.86;100.00;98189.91;4959431;28;20037;-53
2023/01/07 06:26:01;;;;;;;38.22;4.72;;;;;;;11.21;100.00;98186.38;4958336;28;20716;-54
2023/01/07 06:28:26;;;;;;;45.95;4.68;;;;;;;11.44;100.00;98181.09;4962699;28;20774;-53
2023/01/07 06:30:52;;;;;;;58.92;6.32;;;;;;;11.42;100.00;98179.38;4960814;28;20035;-53
2023/01/07 06:33:17;;;;;;;54.88;6.40;;;;;;;11.18;100.00;98175.97;4962383;28;20030;-55
2023/01/07 06:35:44;;;;;;;69.63;7.63;;;;;;;10.76;100.00;98169.13;4962281;28;20043;-53
2023/01/07 06:38:09;;;;;;;49.47;6.00;;;;;;;10.25;100.00;98171.69;4962516;28;20137;-56
2023/01/07 06:40:35;;;;;;;51.30;5.85;;;;;;;10.46;100.00;98170.03;4961163;28;20556;-55
2023/01/07 06:43:00;;;;;;;50.15;6.35;;;;;;;11.11;100.00;98163.84;4962401;28;20066;-56
2023/01/07 06:45:26;;;;;;;54.72;6.65;;;;;;;10.59;100.00;98155.25;4961489;28;20054;-55
2023/01/07 06:47:51;;;;;;;69.93;7.22;;;;;;;10.89;100.00;98153.50;4961910;28;20027;-54
2023/01/07 06:50:17;;;;;;;51.95;6.35;;;;;;;10.68;100.00;98153.53;4960759;28;20121;-55
2023/01/07 06:52:42;;;;;;;54.95;6.03;;;;;;;11.09;100.00;98157.78;4961671;28;20023;-55
2023/01/07 06:55:08;;;;;;;47.28;5.75;;;;;;;10.81;100.00;98156.13;4961328;28;20096;-55
2023/01/07 06:57:34;;;;;;;49.97;5.97;;;;;;;11.00;100.00;98156.94;4962374;28;20026;-53
2023/01/07 06:59:59;;;;;;;67.10;7.00;;;;;;;10.94;100.00;98157.81;4960776;28;20170;-53
2023/01/07 07:02:26;;;;;;;51.05;5.53;;;;;;;10.90;100.00;98157.81;4961142;28;20054;-53
2023/01/07 07:04:52;;;;;;;49.45;6.05;;;;;;;11.20;100.00;98162.09;4961578;28;20211;-53
2023/01/07 07:07:18;;;;;;;56.72;6.43;;;;;;;10.75;100.00;98154.38;4960732;28;20071;-53
2023/01/07 07:09:44;;;;;;;73.47;7.57;;;;;;;11.05;100.00;98152.59;4961493;28;20046;-54
2023/01/07 07:12:10;;;;;;;67.68;7.53;;;;;;;11.20;100.00;98150.81;4960517;28;20039;-53
2023/01/07 07:14:35;;;;;;;48.22;5.18;;;;;;;11.36;100.00;98153.34;4961836;28;20034;-53
2023/01/07 07:17:01;;;;;;;46.40;5.65;;;;;;;11.52;100.00;98149.81;4961276;28;20031;-56
2023/01/07 07:19:26;;;;;;;50.25;5.88;;;;;;;11.44;100.00;98151.59;4961584;28;20112;-53
2023/01/07 07:21:52;;;;;;;51.90;6.30;;;;;;;11.31;100.00;98150.75;4960287;28;20039;-56
2023/01/07 07:24:17;;;;;;;66.15;7.03;;;;;;;10.97;100.00;98148.25;4961175;28;20033;-54
2023/01/07 07:26:43;;;;;;;56.78;6.60;;;;;;;10.85;100.00;98142.22;4960902;28;20035;-53
2023/01/07 07:29:09;;;;;;;51.50;6.03;;;;;;;11.26;100.00;98137.78;4961726;28;20054;-53
2023/01/07 07:31:35;;;;;;;46.40;5.70;;;;;;;11.20;100.00;98140.38;4959959;28;20089;-53
2023/01/07 07:34:00;;;;;;;56.88;6.57;;;;;;;10.55;100.00;98138.81;4961225;28;20901;-53
2023/01/07 07:36:25;;;;;;;63.70;6.90;;;;;;;10.85;100.00;98142.22;4960369;28;20038;-53
2023/01/07 07:38:51;;;;;;;53.33;5.53;;;;;;;11.10;100.00;98141.28;4960708;28;20212;-55
2023/01/07 07:41:16;;;;;;;54.70;6.55;;;;;;;11.22;100.00;98141.25;4959625;28;20650;-53
2023/01/07 07:43:42;;;;;;;57.03;6.45;;;;;;;11.48;100.00;98137.69;4961067;28;20609;-53
2023/01/07 07:46:07;;;;;;;55.40;6.53;;;;;;;11.09;100.00;98129.16;4960623;28;20472;-55
2023/01/07 07:48:32;;;;;;;47.17;6.30;;;;;;;11.30;100.00;98134.28;4960598;28;20058;-54
2023/01/07 07:50:58;;;;;;;63.05;7.45;;;;;;;10.74;100.00;98124.03;4959475;28;20502;-55
2023/01/07 07:53:23;;;;;;;57.63;7.03;;;;;;;10.66;100.00;98126.63;4960922;28;20039;-57
2023/01/07 07:55:48;;;;;;;60.67;6.82;;;;;;;11.20;100.00;98124.75;4960088;28;20027;-54
2023/01/07 07:58:14;;;;;;;46.83;5.93;;;;;;;11.07;100.00;98123.97;4960745;28;20722;-57
2023/01/07 08:00:39;;;;;;;63.83;7.30;;;;;;;10.74;100.00;98120.56;4959064;28;20062;-55
2023/01/07 08:03:05;;;;;;;42.75;5.68;;;;;;;11.24;100.00;98118.69;4953454;28;20463;-55
2023/01/07 08:05:31;;;;;;;38.78;5.47;;;;;;;10.89;100.00;98115.34;4961743;28;20409;-56
2023/01/07 08:07:57;;;;;;;46.83;6.15;;;;;;;11.20;100.00;98120.44;4962309;28;20085;-53
2023/01/07 08:10:24;;;;;;;43.88;6.60;;;;;;;11.02;100.00;98112.69;4961658;28;20412;-55
2023/01/07 08:12:49;;;;;;;60.08;7.55;;;;;;;11.02;100.00;98115.31;4962810;28;20050;-56
2023/01/07 08:15:15;;;;;;;45.78;7.22;;;;;;;11.15;100.00;98116.13;4961949;28;20065;-58
2023/01/07 08:17:40;;;;;;;46.53;7.10;;;;;;;11.09;100.00;98118.75;4962278;28;20033;-54
2023/01/07 08:20:07;;;;;;;50.55;7.65;;;;;;;11.01;100.00;98111.81;4961422;28;20064;-55
2023/01/07 08:22:32;;;;;;;43.63;7.25;;;;;;;11.31;100.00;98115.19;4961936;28;20053;-53
2023/01/07 08:24:58;;;;;;;57.70;7.00;;;;;;;11.55;100.00;98100.28;4961887;28;20660;-53
2023/01/07 08:27:26;;;;;;;46.90;6.95;;;;;;;11.65;100.00;98101.09;4961507;28;20035;-54
2023/01/07 08:29:52;;;;;;;82.40;9.27;;;;;;;11.23;100.00;98096.13;4960899;28;20027;-53
2023/01/07 08:32:17;;;;;;;44.58;7.80;;;;;;;11.31;100.00;98093.47;4960274;28;20039;-53
2023/01/07 08:34:42;;;;;;;41.78;7.60;;;;;;;11.46;100.00;98092.53;4962488;28;20026;-54
2023/01/07 08:37:08;;;;;;;65.43;8.75;;;;;;;11.30;100.00;98087.41;4961187;28;20043;-55
2023/01/07 08:39:33;;;;;;;49.33;7.65;;;;;;;11.43;100.00;98087.38;4961820;28;20027;-53
2023/01/07 08:41:58;;;;;;;33.53;7.03;;;;;;;11.32;100.00;98090.88;4960530;28;20054;-53
2023/01/07 08:44:24;;;;;;;49.42;8.18;;;;;;;11.09;100.00;98083.16;4962208;28;20010;-54
2023/01/07 08:46:51;;;;;;;45.05;7.30;;;;;;;10.88;100.00;98084.09;4961544;28;20066;-53
2023/01/07 08:49:16;;;;;;;54.53;8.00;;;;;;;10.98;100.00;98082.34;4960247;28;20033;-53
2023/01/07 08:51:42;;;;;;;52.25;9.07;;;;;;;11.18;100.00;98082.25;4960174;28;20076;-55
2023/01/07 08:54:07;;;;;;;45.60;7.35;;;;;;;11.23;100.00;98077.91;4962415;28;20072;-55
2023/01/07 08:56:32;;;;;;;52.63;7.50;;;;;;;11.56;100.00;98077.72;4961022;28;20043;-54
2023/01/07 08:58:58;;;;;;;47.97;7.18;;;;;;;11.44;100.00;98074.31;4961915;28;20113;-53
2023/01/07 09:01:24;;;;;;;61.55;8.45;;;;;;;11.33;100.00;98076.13;4959611;28;20027;-54
2023/01/07 09:03:49;;;;;;;43.17;6.93;;;;;;;11.52;100.00;98073.41;4961716;28;20022;-57
2023/01/07 09:06:14;;;;;;;46.45;7.38;;;;;;;11.58;100.00;98068.19;4961453;28;20425;-56
2023/01/07 09:08:40;;;;;;;55.63;8.55;;;;;;;11.66;100.00;98068.13;4961259;28;20022;-53
2023/01/07 09:11:05;;;;;;;65.07;8.35;;;;;;;11.62;100.00;98061.19;4959982;28;20070;-53
2023/01/07 09:13:30;;;;;;;59.13;8.05;;;;;;;11.50;100.00;98059.53;4961441;28;20014;-54
2023/01/07 09:15:56;;;;;;;55.80;6.88;;;;;;;11.59;100.00;98057.72;4961461;28;20034;-53
2023/01/07 09:18:21;;;;;;;49.33;7.68;;;;;;;11.53;100.00;98060.38;4961738;28;20029;-53
2023/01/07 09:20:47;;;;;;;62.90;13.38;;;;;;;11.49;100.00;98058.66;4959969;28;20561;-55
2023/01/07 09:23:12;;;;;;;50.58;7.45;;;;;;;11.44;100.00;98060.44;4961104;28;20109;-54
2023/01/07 09:25:37;;;;;;;53.70;8.70;;;;;;;11.56;100.00;98055.16;4960624;28;20093;-53
2023/01/07 09:28:03;;;;;;;52.25;9.38;;;;;;;11.67;100.00;98062.03;4961324;28;20080;-55
2023/01/07 09:30:29;;;;;;;54.03;8.52;;;;;;;11.52;100.00;98065.59;4960548;28;20065;-53
2023/01/07 09:32:54;;;;;;;53.67;9.32;;;;;;;11.75;100.00;98067.19;4960349;28;20073;-55
2023/01/07 09:35:19;;;;;;;37.47;7.90;;;;;;;11.80;100.00;98066.28;4961020;28;20031;-54
2023/01/07 09:37:45;;;;;;;57.50;10.90;;;;;;;11.97;100.00;98070.50;4960864;28;20064;-54
2023/01/07 09:40:35;;;;;;;46.38;9.20;;;;;;;11.64;100.00;98065.53;4952565;28;20125;-53
2023/01/07 09:43:12;;;;;;;63.58;9.43;;;;;;;11.51;100.00;98067.31;4960064;28;20046;-55
2023/01/07 09:45:46;;;;;;;50.40;8.13;;;;;;;11.42;100.00;98062.16;4961050;28;20043;-53
2023/01/07 09:48:15;;;;;;;46.15;7.60;;;;;;;11.59;100.00;98068.13;4960811;28;20109;-53
2023/01/07 09:50:52;;;;;;;49.22;8.35;;;;;;;11.47;100.00;98063.00;4960030;28;20050;-56
2023/01/07 09:53:29;;;;;;;43.90;7.65;;;;;;;11.43;100.00;98064.78;4960373;28;20365;-54
2023/01/07 09:55:55;;;;;;;40.60;7.88;;;;;;;11.38;100.00;98060.47;4960000;28;20062;-56
2023/01/07 09:58:21;;;;;;;45.78;9.18;;;;;;;11.43;100.00;98056.97;4961284;28;20748;-54
2023/01/07 10:01:05;;;;;;;57.28;9.45;;;;;;;11.54;100.00;98056.03;4961233;28;20053;-53
2023/01/07 10:04:01;;;;;;;45.33;7.30;;;;;;;11.49;100.00;98055.19;4964137;28;20516;-57
2023/01/07 10:07:02;;;;;;;51.55;7.30;;;;;;;11.36;100.00;98051.81;4963856;28;20053;-53
2023/01/07 10:09:50;;;;;;;53.63;6.43;;;;;;;11.23;100.00;98043.16;4885061;29;20119;-53
2023/01/07 10:12:40;;;;;;;49.83;6.75;;;;;;;11.33;100.00;98045.72;4958441;28;20050;-57
2023/01/07 10:15:23;;;;;;;47.40;5.93;;;;;;;11.28;100.00;98039.69;4963788;28;20014;-55
2023/01/07 10:17:49;;;;;;;34.00;5.53;;;;;;;11.45;100.00;98036.13;4964851;28;20165;-55
2023/01/07 10:20:45;;;;;;;42.03;5.97;;;;;;;11.47;100.00;98034.34;4963377;28;20550;-54
2023/01/07 10:23:20;;;;;;;39.75;6.07;;;;;;;11.70;100.00;98025.53;4963776;28;20037;-56
2023/01/07 10:25:52;;;;;;;64.32;7.32;;;;;;;11.66;100.00;98031.66;4960503;28;20460;-56
2023/01/07 10:28:28;;;;;;;40.70;6.03;;;;;;;11.73;100.00;98017.69;4962884;28;20027;-55
2023/01/07 10:30:54;;;;;;;45.67;5.43;;;;;;;11.79;100.00;98014.16;4963203;28;20065;-53
2023/01/07 10:33:27;;;;;;;41.53;5.55;;;;;;;11.94;100.00;98011.44;4963421;28;20463;-57
2023/01/07 10:36:00;;;;;;;44.03;5.72;;;;;;;11.94;100.00;98005.34;4963383;28;20048;-54
2023/01/07 10:38:31;;;;;;;51.30;5.82;;;;;;;11.81;100.00;97988.97;4963359;28;20026;-54
2023/01/07 10:41:05;;;;;;;49.70;5.73;;;;;;;11.54;100.00;97990.94;4961474;28;20116;-54
2023/01/07 10:43:46;;;;;;;53.88;6.38;;;;;;;11.50;100.00;97987.47;4963084;28;20791;-53
2023/01/07 10:46:11;;;;;;;50.83;5.35;;;;;;;11.23;100.00;97983.28;4963624;28;20548;-55
2023/01/07 10:49:07;;;;;;;52.85;5.72;;;;;;;11.14;100.00;97976.41;4963303;28;20042;-54
2023/01/07 10:51:50;;;;;;;46.22;5.47;;;;;;;10.90;100.00;97967.84;4962084;28;20121;-56
2023/01/07 10:54:34;;;;;;;41.33;5.15;;;;;;;11.42;100.00;97968.41;4961124;28;20043;-55
2023/01/07 10:57:04;;;;;;;53.13;6.03;;;;;;;11.70;100.00;97966.47;4961508;28;21021;-53
2023/01/07 10:59:30;;;;;;;49.42;5.75;;;;;;;11.87;100.00;97962.84;4964173;28;20093;-57
2023/01/07 11:01:57;;;;;;;62.50;6.65;;;;;;;11.61;100.00;97961.31;4961615;28;20043;-55
2023/01/07 11:04:23;;;;;;;39.63;5.00;;;;;;;11.80;100.00;97959.44;4963684;28;20041;-54
2023/01/07 11:06:57;;;;;;;53.55;6.20;;;;;;;11.73;100.00;97949.94;4962627;28;20779;-54
2023/01/07 11:09:35;;;;;;;52.72;5.68;;;;;;;11.55;100.00;97951.81;4963303;28;20038;-56
2023/01/07 11:12:25;;;;;;;88.18;8.02;;;;;;;11.54;100.00;97946.66;4953476;28;20657;-54
2023/01/07 11:14:53;;;;;;;48.92;5.78;;;;;;;12.15;100.00;97936.56;4950592;28;20160;-53
2023/01/07 11:17:35;;;;;;;44.92;5.38;;;;;;;12.39;100.00;97936.31;4958906;28;20064;-54
2023/01/07 11:20:00;;;;;;;79.43;7.83;;;;;;;12.13;100.00;97924.44;4962179;28;20030;-58
2023/01/07 11:22:25;;;;;;;80.72;7.97;;;;;;;12.43;100.00;97922.34;4957909;28;20038;-56
2023/01/07 11:24:52;;;;;;;74.25;7.53;;;;;;;12.72;100.00;97916.75;4958423;28;20026;-56
2023/01/07 11:27:20;;;;;;;73.97;7.07;;;;;;;12.66;100.00;97915.97;4958471;28;20039;-57